Station Historical Data
Daily Summary for August 11, 2012 Units:  Both    English   Metric
« Previous Day
Next Day »
Daily Weekly Monthly Yearly Custom
  High: Low: Average:
Temperature: 81.2 °F /  27.3 °C 61.5 °F /  16.4 °C 71.5 °F /  21.9 °C
Dew Point: 65.6 °F /  18.7 °C 57.7 °F /  14.3 °C 61 °F /  16.1 °C
Humidity: 93% 45% 72%
Wind Speed: 9.0mph /  14.5km/h - 2.7mph /  4.3km/h
Wind Gust: 11.0mph /  17.7km/h - -
Wind- - SSE
Pressure: 29.95 in /  1014.1 hPa 29.84 in /  1010.4 hPa -
Precipitation: 0.01 in /  0.25 mm    
Historical Graphs
 
 
Tabular Data for August 11, 2012
Time Temperature Dew Point Pressure Wind Wind Speed Wind Gust Humidity Rainfall Rate (Hourly) Conditions
00:00 70.0 °F /  21.1 °C 65.6 °F /  18.7 °C 29.85in /  1010.7hPa NE 1.0mph /  1.6km/h 2.0mph /  3.2km/h 86% 0.00in /  0mm
00:01 69.9 °F /  21.1 °C 65.5 °F /  18.6 °C 29.85in /  1010.7hPa NE 1.0mph /  1.6km/h 3.0mph /  4.8km/h 86% 0.00in /  0mm
00:06 69.8 °F /  21 °C 65.4 °F /  18.6 °C 29.85in /  1010.7hPa NNE 1.0mph /  1.6km/h 4.0mph /  6.4km/h 86% 0.00in /  0mm
00:11 69.6 °F /  20.9 °C 65.2 °F /  18.4 °C 29.85in /  1010.7hPa NW 1.0mph /  1.6km/h 3.0mph /  4.8km/h 86% 0.00in /  0mm
00:16 69.6 °F /  20.9 °C 65.2 °F /  18.4 °C 29.85in /  1010.7hPa NNW 1.0mph /  1.6km/h 3.0mph /  4.8km/h 86% 0.00in /  0mm
00:21 69.4 °F /  20.8 °C 65.0 °F /  18.3 °C 29.85in /  1010.7hPa North 2.0mph /  3.2km/h 3.0mph /  4.8km/h 86% 0.00in /  0mm
00:26 69.3 °F /  20.7 °C 64.9 °F /  18.3 °C 29.85in /  1010.7hPa NNW 2.0mph /  3.2km/h 3.0mph /  4.8km/h 86% 0.00in /  0mm
00:31 69.1 °F /  20.6 °C 64.7 °F /  18.2 °C 29.85in /  1010.7hPa NNE 2.0mph /  3.2km/h 4.0mph /  6.4km/h 86% 0.00in /  0mm
00:37 69.0 °F /  20.6 °C 64.6 °F /  18.1 °C 29.85in /  1010.7hPa NNW 2.0mph /  3.2km/h 3.0mph /  4.8km/h 86% 0.00in /  0mm
00:42 68.7 °F /  20.4 °C 64.7 °F /  18.2 °C 29.85in /  1010.7hPa NNW 2.0mph /  3.2km/h 3.0mph /  4.8km/h 87% 0.00in /  0mm
00:47 68.4 °F /  20.2 °C 64.4 °F /  18 °C 29.85in /  1010.7hPa North 3.0mph /  4.8km/h 3.0mph /  4.8km/h 87% 0.00in /  0mm
00:52 68.3 °F /  20.2 °C 64.3 °F /  17.9 °C 29.85in /  1010.7hPa NNW 3.0mph /  4.8km/h 4.0mph /  6.4km/h 87% 0.00in /  0mm
00:57 68.0 °F /  20 °C 64.3 °F /  17.9 °C 29.85in /  1010.7hPa North 2.0mph /  3.2km/h 4.0mph /  6.4km/h 88% 0.00in /  0mm
01:02 67.9 °F /  19.9 °C 64.2 °F /  17.9 °C 29.85in /  1010.7hPa NNW 3.0mph /  4.8km/h 4.0mph /  6.4km/h 88% 0.00in /  0mm
01:07 67.8 °F /  19.9 °C 64.1 °F /  17.8 °C 29.85in /  1010.7hPa NNW 2.0mph /  3.2km/h 4.0mph /  6.4km/h 88% 0.00in /  0mm
01:12 67.8 °F /  19.9 °C 64.1 °F /  17.8 °C 29.85in /  1010.7hPa NNW 1.0mph /  1.6km/h 3.0mph /  4.8km/h 88% 0.00in /  0mm
01:17 67.8 °F /  19.9 °C 64.1 °F /  17.8 °C 29.85in /  1010.7hPa NNE 2.0mph /  3.2km/h 2.0mph /  3.2km/h 88% 0.00in /  0mm
01:22 67.8 °F /  19.9 °C 63.8 °F /  17.7 °C 29.85in /  1010.7hPa NNE 1.0mph /  1.6km/h 2.0mph /  3.2km/h 87% 0.00in /  0mm
01:27 67.7 °F /  19.8 °C 63.7 °F /  17.6 °C 29.85in /  1010.7hPa North 1.0mph /  1.6km/h 2.0mph /  3.2km/h 87% 0.00in /  0mm
01:32 67.5 °F /  19.7 °C 63.5 °F /  17.5 °C 29.86in /  1011.1hPa Calm   1.0mph /  1.6km/h 87% 0.00in /  0mm
01:37 67.4 °F /  19.7 °C 63.4 °F /  17.4 °C 29.85in /  1010.7hPa North 2.0mph /  3.2km/h 3.0mph /  4.8km/h 87% 0.00in /  0mm
01:42 67.4 °F /  19.7 °C 63.4 °F /  17.4 °C 29.85in /  1010.7hPa North 2.0mph /  3.2km/h 2.0mph /  3.2km/h 87% 0.00in /  0mm
01:47 67.3 °F /  19.6 °C 63.3 °F /  17.4 °C 29.85in /  1010.7hPa North 1.0mph /  1.6km/h 2.0mph /  3.2km/h 87% 0.00in /  0mm
01:52 67.1 °F /  19.5 °C 63.4 °F /  17.4 °C 29.85in /  1010.7hPa NNW 1.0mph /  1.6km/h 3.0mph /  4.8km/h 88% 0.00in /  0mm
01:57 67.0 °F /  19.4 °C 63.3 °F /  17.4 °C 29.85in /  1010.7hPa NNW 3.0mph /  4.8km/h 4.0mph /  6.4km/h 88% 0.00in /  0mm
02:02 66.8 °F /  19.3 °C 63.1 °F /  17.3 °C 29.85in /  1010.7hPa North 3.0mph /  4.8km/h 4.0mph /  6.4km/h 88% 0.00in /  0mm
02:07 66.7 °F /  19.3 °C 63.0 °F /  17.2 °C 29.85in /  1010.7hPa North 2.0mph /  3.2km/h 3.0mph /  4.8km/h 88% 0.00in /  0mm
02:12 66.6 °F /  19.2 °C 62.9 °F /  17.2 °C 29.85in /  1010.7hPa NNE 1.0mph /  1.6km/h 4.0mph /  6.4km/h 88% 0.00in /  0mm
02:17 66.5 °F /  19.2 °C 62.8 °F /  17.1 °C 29.85in /  1010.7hPa NNE 1.0mph /  1.6km/h 4.0mph /  6.4km/h 88% 0.00in /  0mm
02:22 66.4 °F /  19.1 °C 62.7 °F /  17.1 °C 29.85in /  1010.7hPa NNW 1.0mph /  1.6km/h 3.0mph /  4.8km/h 88% 0.00in /  0mm
02:27 66.4 °F /  19.1 °C 62.7 °F /  17.1 °C 29.85in /  1010.7hPa North 1.0mph /  1.6km/h 3.0mph /  4.8km/h 88% 0.00in /  0mm
02:32 66.4 °F /  19.1 °C 62.7 °F /  17.1 °C 29.85in /  1010.7hPa NNE 4.0mph /  6.4km/h 4.0mph /  6.4km/h 88% 0.00in /  0mm
02:37 66.2 °F /  19 °C 62.5 °F /  16.9 °C 29.85in /  1010.7hPa North 3.0mph /  4.8km/h 4.0mph /  6.4km/h 88% 0.00in /  0mm
02:42 66.0 °F /  18.9 °C 62.7 °F /  17.1 °C 29.85in /  1010.7hPa NNE 2.0mph /  3.2km/h 5.0mph /  8km/h 89% 0.00in /  0mm
02:47 65.8 °F /  18.8 °C 62.5 °F /  16.9 °C 29.85in /  1010.7hPa North 2.0mph /  3.2km/h 3.0mph /  4.8km/h 89% 0.00in /  0mm
02:52 65.8 °F /  18.8 °C 62.5 °F /  16.9 °C 29.85in /  1010.7hPa North 3.0mph /  4.8km/h 3.0mph /  4.8km/h 89% 0.00in /  0mm
02:57 65.8 °F /  18.8 °C 62.5 °F /  16.9 °C 29.85in /  1010.7hPa North 1.0mph /  1.6km/h 3.0mph /  4.8km/h 89% 0.00in /  0mm
03:02 65.7 °F /  18.7 °C 62.4 °F /  16.9 °C 29.85in /  1010.7hPa North 2.0mph /  3.2km/h 4.0mph /  6.4km/h 89% 0.00in /  0mm
03:07 65.6 °F /  18.7 °C 62.3 °F /  16.8 °C 29.85in /  1010.7hPa NNW 1.0mph /  1.6km/h 2.0mph /  3.2km/h 89% 0.00in /  0mm
03:12 65.7 °F /  18.7 °C 62.0 °F /  16.7 °C 29.85in /  1010.7hPa NNE 1.0mph /  1.6km/h 4.0mph /  6.4km/h 88% 0.00in /  0mm
03:17 65.7 °F /  18.7 °C 62.0 °F /  16.7 °C 29.85in /  1010.7hPa North 2.0mph /  3.2km/h 2.0mph /  3.2km/h 88% 0.00in /  0mm
03:22 65.6 °F /  18.7 °C 62.0 °F /  16.7 °C 29.85in /  1010.7hPa North 1.0mph /  1.6km/h 2.0mph /  3.2km/h 88% 0.00in /  0mm
03:28 65.4 °F /  18.6 °C 61.8 °F /  16.6 °C 29.85in /  1010.7hPa NNE 2.0mph /  3.2km/h 2.0mph /  3.2km/h 88% 0.00in /  0mm
03:32 65.3 °F /  18.5 °C 61.7 °F /  16.5 °C 29.85in /  1010.7hPa North 1.0mph /  1.6km/h 3.0mph /  4.8km/h 88% 0.00in /  0mm
03:38 65.1 °F /  18.4 °C 61.5 °F /  16.4 °C 29.85in /  1010.7hPa North 2.0mph /  3.2km/h 3.0mph /  4.8km/h 88% 0.00in /  0mm
03:43 64.9 °F /  18.3 °C 61.6 °F /  16.4 °C 29.85in /  1010.7hPa North 2.0mph /  3.2km/h 3.0mph /  4.8km/h 89% 0.00in /  0mm
03:48 64.8 °F /  18.2 °C 61.5 °F /  16.4 °C 29.85in /  1010.7hPa North 2.0mph /  3.2km/h 2.0mph /  3.2km/h 89% 0.00in /  0mm
03:53 64.7 °F /  18.2 °C 61.4 °F /  16.3 °C 29.85in /  1010.7hPa NNW 2.0mph /  3.2km/h 3.0mph /  4.8km/h 89% 0.00in /  0mm
03:58 64.6 °F /  18.1 °C 61.3 °F /  16.3 °C 29.85in /  1010.7hPa Calm   3.0mph /  4.8km/h 89% 0.00in /  0mm
04:03 64.5 °F /  18.1 °C 61.2 °F /  16.2 °C 29.85in /  1010.7hPa North 2.0mph /  3.2km/h 4.0mph /  6.4km/h 89% 0.00in /  0mm
04:08 64.7 °F /  18.2 °C 61.4 °F /  16.3 °C 29.85in /  1010.7hPa NE 2.0mph /  3.2km/h 5.0mph /  8km/h 89% 0.00in /  0mm
04:13 64.7 °F /  18.2 °C 61.4 °F /  16.3 °C 29.85in /  1010.7hPa NNE 2.0mph /  3.2km/h 4.0mph /  6.4km/h 89% 0.00in /  0mm
04:18 64.6 °F /  18.1 °C 61.0 °F /  16.1 °C 29.84in /  1010.4hPa North 1.0mph /  1.6km/h 3.0mph /  4.8km/h 88% 0.00in /  0mm
04:23 64.6 °F /  18.1 °C 61.0 °F /  16.1 °C 29.84in /  1010.4hPa NNE 1.0mph /  1.6km/h 3.0mph /  4.8km/h 88% 0.00in /  0mm
04:28 64.4 °F /  18 °C 61.1 °F /  16.2 °C 29.85in /  1010.7hPa NNE 3.0mph /  4.8km/h 3.0mph /  4.8km/h 89% 0.00in /  0mm
04:33 64.2 °F /  17.9 °C 60.9 °F /  16.1 °C 29.85in /  1010.7hPa North 3.0mph /  4.8km/h 3.0mph /  4.8km/h 89% 0.00in /  0mm
04:38 63.9 °F /  17.7 °C 60.6 °F /  15.9 °C 29.85in /  1010.7hPa NNW 2.0mph /  3.2km/h 3.0mph /  4.8km/h 89% 0.00in /  0mm
04:43 63.7 °F /  17.6 °C 60.7 °F /  15.9 °C 29.85in /  1010.7hPa NNW 2.0mph /  3.2km/h 3.0mph /  4.8km/h 90% 0.00in /  0mm
04:48 63.7 °F /  17.6 °C 60.7 °F /  15.9 °C 29.85in /  1010.7hPa NNW 2.0mph /  3.2km/h 3.0mph /  4.8km/h 90% 0.00in /  0mm
04:53 63.5 °F /  17.5 °C 60.5 °F /  15.8 °C 29.85in /  1010.7hPa North 2.0mph /  3.2km/h 3.0mph /  4.8km/h 90% 0.00in /  0mm
04:58 63.5 °F /  17.5 °C 60.5 °F /  15.8 °C 29.85in /  1010.7hPa NNW 3.0mph /  4.8km/h 4.0mph /  6.4km/h 90% 0.00in /  0mm
05:03 63.4 °F /  17.4 °C 60.4 °F /  15.8 °C 29.85in /  1010.7hPa NNW 2.0mph /  3.2km/h 3.0mph /  4.8km/h 90% 0.00in /  0mm
05:08 63.2 °F /  17.3 °C 60.5 °F /  15.8 °C 29.85in /  1010.7hPa North 2.0mph /  3.2km/h 3.0mph /  4.8km/h 91% 0.00in /  0mm
05:13 63.1 °F /  17.3 °C 60.4 °F /  15.8 °C 29.85in /  1010.7hPa North 2.0mph /  3.2km/h 3.0mph /  4.8km/h 91% 0.00in /  0mm
05:18 63.0 °F /  17.2 °C 60.3 °F /  15.7 °C 29.86in /  1011.1hPa North 2.0mph /  3.2km/h 3.0mph /  4.8km/h 91% 0.00in /  0mm
05:23 62.9 °F /  17.2 °C 60.2 °F /  15.7 °C 29.86in /  1011.1hPa NNW 1.0mph /  1.6km/h 2.0mph /  3.2km/h 91% 0.00in /  0mm
05:28 62.8 °F /  17.1 °C 60.1 °F /  15.6 °C 29.86in /  1011.1hPa NNE 1.0mph /  1.6km/h 2.0mph /  3.2km/h 91% 0.00in /  0mm
05:33 62.8 °F /  17.1 °C 60.1 °F /  15.6 °C 29.86in /  1011.1hPa NNE 2.0mph /  3.2km/h 2.0mph /  3.2km/h 91% 0.00in /  0mm
05:38 62.8 °F /  17.1 °C 60.1 °F /  15.6 °C 29.86in /  1011.1hPa NNE 1.0mph /  1.6km/h 2.0mph /  3.2km/h 91% 0.00in /  0mm
05:43 62.8 °F /  17.1 °C 60.1 °F /  15.6 °C 29.86in /  1011.1hPa NNE 1.0mph /  1.6km/h 2.0mph /  3.2km/h 91% 0.00in /  0mm
05:48 62.9 °F /  17.2 °C 60.2 °F /  15.7 °C 29.86in /  1011.1hPa NNE 1.0mph /  1.6km/h 4.0mph /  6.4km/h 91% 0.00in /  0mm
05:53 62.9 °F /  17.2 °C 60.2 °F /  15.7 °C 29.87in /  1011.4hPa NE 1.0mph /  1.6km/h 3.0mph /  4.8km/h 91% 0.00in /  0mm
05:58 62.8 °F /  17.1 °C 60.1 °F /  15.6 °C 29.87in /  1011.4hPa Calm   1.0mph /  1.6km/h 91% 0.00in /  0mm
06:03 62.6 °F /  17 °C 59.9 °F /  15.5 °C 29.87in /  1011.4hPa NNE 1.0mph /  1.6km/h 1.0mph /  1.6km/h 91% 0.00in /  0mm
06:08 62.3 °F /  16.8 °C 59.6 °F /  15.3 °C 29.87in /  1011.4hPa NNW 3.0mph /  4.8km/h 3.0mph /  4.8km/h 91% 0.00in /  0mm
06:13 62.1 °F /  16.7 °C 59.8 °F /  15.4 °C 29.87in /  1011.4hPa NNW 2.0mph /  3.2km/h 3.0mph /  4.8km/h 92% 0.00in /  0mm
06:18 62.0 °F /  16.7 °C 59.7 °F /  15.4 °C 29.87in /  1011.4hPa NNW 2.0mph /  3.2km/h 3.0mph /  4.8km/h 92% 0.00in /  0mm
06:23 61.9 °F /  16.6 °C 59.5 °F /  15.3 °C 29.87in /  1011.4hPa NNW 2.0mph /  3.2km/h 3.0mph /  4.8km/h 92% 0.00in /  0mm
06:28 61.9 °F /  16.6 °C 59.5 °F /  15.3 °C 29.87in /  1011.4hPa North 2.0mph /  3.2km/h 5.0mph /  8km/h 92% 0.00in /  0mm
06:33 61.9 °F /  16.6 °C 59.5 °F /  15.3 °C 29.87in /  1011.4hPa Calm   3.0mph /  4.8km/h 92% 0.00in /  0mm
06:38 61.9 °F /  16.6 °C 59.5 °F /  15.3 °C 29.88in /  1011.7hPa North 1.0mph /  1.6km/h 2.0mph /  3.2km/h 92% 0.00in /  0mm
06:43 62.1 °F /  16.7 °C 59.8 °F /  15.4 °C 29.88in /  1011.7hPa Calm   1.0mph /  1.6km/h 92% 0.00in /  0mm
06:48 62.0 °F /  16.7 °C 59.7 °F /  15.4 °C 29.88in /  1011.7hPa Calm   1.0mph /  1.6km/h 92% 0.00in /  0mm
06:53 61.9 °F /  16.6 °C 59.5 °F /  15.3 °C 29.89in /  1012.1hPa North 1.0mph /  1.6km/h 2.0mph /  3.2km/h 92% 0.00in /  0mm
06:58 61.8 °F /  16.6 °C 59.5 °F /  15.3 °C 29.89in /  1012.1hPa North 3.0mph /  4.8km/h 3.0mph /  4.8km/h 92% 0.00in /  0mm
07:03 61.7 °F /  16.5 °C 59.4 °F /  15.2 °C 29.89in /  1012.1hPa NNW 1.0mph /  1.6km/h 2.0mph /  3.2km/h 92% 0.00in /  0mm
07:08 61.6 °F /  16.4 °C 59.3 °F /  15.2 °C 29.89in /  1012.1hPa NNW 1.0mph /  1.6km/h 2.0mph /  3.2km/h 92% 0.00in /  0mm
07:13 61.6 °F /  16.4 °C 59.3 °F /  15.2 °C 29.89in /  1012.1hPa NNW 1.0mph /  1.6km/h 3.0mph /  4.8km/h 92% 0.00in /  0mm
07:18 61.6 °F /  16.4 °C 59.3 °F /  15.2 °C 29.89in /  1012.1hPa NNW 2.0mph /  3.2km/h 3.0mph /  4.8km/h 92% 0.00in /  0mm
07:23 61.6 °F /  16.4 °C 59.3 °F /  15.2 °C 29.89in /  1012.1hPa North 2.0mph /  3.2km/h 3.0mph /  4.8km/h 92% 0.00in /  0mm
07:28 61.5 °F /  16.4 °C 59.2 °F /  15.1 °C 29.89in /  1012.1hPa North 3.0mph /  4.8km/h 4.0mph /  6.4km/h 92% 0.00in /  0mm
07:33 61.6 °F /  16.4 °C 59.6 °F /  15.3 °C 29.89in /  1012.1hPa North 3.0mph /  4.8km/h 4.0mph /  6.4km/h 93% 0.00in /  0mm
07:38 61.8 °F /  16.6 °C 59.8 °F /  15.4 °C 29.90in /  1012.4hPa NNW 2.0mph /  3.2km/h 5.0mph /  8km/h 93% 0.00in /  0mm
07:44 61.9 °F /  16.6 °C 59.9 °F /  15.5 °C 29.90in /  1012.4hPa NNE 3.0mph /  4.8km/h 4.0mph /  6.4km/h 93% 0.00in /  0mm
07:49 62.1 °F /  16.7 °C 60.1 °F /  15.6 °C 29.90in /  1012.4hPa NNE 3.0mph /  4.8km/h 4.0mph /  6.4km/h 93% 0.00in /  0mm
07:54 62.5 °F /  16.9 °C 60.2 °F /  15.7 °C 29.90in /  1012.4hPa North 1.0mph /  1.6km/h 3.0mph /  4.8km/h 92% 0.00in /  0mm
07:59 63.0 °F /  17.2 °C 60.6 °F /  15.9 °C 29.91in /  1012.8hPa NNW 3.0mph /  4.8km/h 6.0mph /  9.7km/h 92% 0.00in /  0mm
08:04 63.4 °F /  17.4 °C 60.7 °F /  15.9 °C 29.91in /  1012.8hPa North 3.0mph /  4.8km/h 5.0mph /  8km/h 91% 0.00in /  0mm
08:09 63.8 °F /  17.7 °C 61.1 °F /  16.2 °C 29.91in /  1012.8hPa NNE 2.0mph /  3.2km/h 6.0mph /  9.7km/h 91% 0.00in /  0mm
08:14 64.1 °F /  17.8 °C 61.1 °F /  16.2 °C 29.92in /  1013.1hPa North 4.0mph /  6.4km/h 5.0mph /  8km/h 90% 0.00in /  0mm
08:19 64.4 °F /  18 °C 61.4 °F /  16.3 °C 29.92in /  1013.1hPa North 4.0mph /  6.4km/h 6.0mph /  9.7km/h 90% 0.00in /  0mm
08:24 64.7 °F /  18.2 °C 61.4 °F /  16.3 °C 29.92in /  1013.1hPa North 3.0mph /  4.8km/h 6.0mph /  9.7km/h 89% 0.00in /  0mm
08:29 65.1 °F /  18.4 °C 61.5 °F /  16.4 °C 29.92in /  1013.1hPa NW 2.0mph /  3.2km/h 4.0mph /  6.4km/h 88% 0.00in /  0mm
08:34 65.5 °F /  18.6 °C 61.9 °F /  16.6 °C 29.92in /  1013.1hPa NNE 5.0mph /  8km/h 6.0mph /  9.7km/h 88% 0.00in /  0mm
08:39 65.9 °F /  18.8 °C 61.9 °F /  16.6 °C 29.92in /  1013.1hPa NNW 3.0mph /  4.8km/h 8.0mph /  12.9km/h 87% 0.00in /  0mm
08:44 66.3 °F /  19.1 °C 62.3 °F /  16.8 °C 29.92in /  1013.1hPa NW 3.0mph /  4.8km/h 5.0mph /  8km/h 87% 0.00in /  0mm
08:49 66.6 °F /  19.2 °C 62.0 °F /  16.7 °C 29.92in /  1013.1hPa NNW 6.0mph /  9.7km/h 9.0mph /  14.5km/h 85% 0.00in /  0mm
08:54 66.8 °F /  19.3 °C 62.2 °F /  16.8 °C 29.92in /  1013.1hPa NNE 3.0mph /  4.8km/h 8.0mph /  12.9km/h 85% 0.00in /  0mm
08:59 67.3 °F /  19.6 °C 62.6 °F /  17 °C 29.93in /  1013.4hPa North 2.0mph /  3.2km/h 5.0mph /  8km/h 85% 0.00in /  0mm
09:04 67.5 °F /  19.7 °C 62.2 °F /  16.8 °C 29.93in /  1013.4hPa NE 3.0mph /  4.8km/h 9.0mph /  14.5km/h 83% 0.00in /  0mm
09:09 67.7 °F /  19.8 °C 63.0 °F /  17.2 °C 29.93in /  1013.4hPa North 6.0mph /  9.7km/h 8.0mph /  12.9km/h 85% 0.00in /  0mm
09:14 68.1 °F /  20.1 °C 63.1 °F /  17.3 °C 29.93in /  1013.4hPa NE 6.0mph /  9.7km/h 6.0mph /  9.7km/h 84% 0.00in /  0mm
09:19 68.5 °F /  20.3 °C 62.8 °F /  17.1 °C 29.94in /  1013.8hPa North 6.0mph /  9.7km/h 6.0mph /  9.7km/h 82% 0.00in /  0mm
09:24 68.8 °F /  20.4 °C 62.4 °F /  16.9 °C 29.94in /  1013.8hPa NNE 4.0mph /  6.4km/h 8.0mph /  12.9km/h 80% 0.00in /  0mm
09:29 69.0 °F /  20.6 °C 62.9 °F /  17.2 °C 29.94in /  1013.8hPa NE 2.0mph /  3.2km/h 8.0mph /  12.9km/h 81% 0.00in /  0mm
09:34 69.3 °F /  20.7 °C 63.2 °F /  17.3 °C 29.94in /  1013.8hPa Calm   8.0mph /  12.9km/h 81% 0.00in /  0mm
09:39 69.6 °F /  20.9 °C 62.1 °F /  16.7 °C 29.94in /  1013.8hPa NE 9.0mph /  14.5km/h 9.0mph /  14.5km/h 77% 0.00in /  0mm
09:44 69.8 °F /  21 °C 62.6 °F /  17 °C 29.94in /  1013.8hPa NE 4.0mph /  6.4km/h 7.0mph /  11.3km/h 78% 0.00in /  0mm
09:49 70.0 °F /  21.1 °C 62.5 °F /  16.9 °C 29.94in /  1013.8hPa NNE 8.0mph /  12.9km/h 8.0mph /  12.9km/h 77% 0.00in /  0mm
09:54 70.2 °F /  21.2 °C 62.7 °F /  17.1 °C 29.94in /  1013.8hPa NNW 4.0mph /  6.4km/h 8.0mph /  12.9km/h 77% 0.00in /  0mm
09:59 70.2 °F /  21.2 °C 61.9 °F /  16.6 °C 29.94in /  1013.8hPa ENE 3.0mph /  4.8km/h 11.0mph /  17.7km/h 75% 0.00in /  0mm
10:04 70.3 °F /  21.3 °C 62.0 °F /  16.7 °C 29.95in /  1014.1hPa NE 6.0mph /  9.7km/h 11.0mph /  17.7km/h 75% 0.00in /  0mm
10:09 70.6 °F /  21.4 °C 62.3 °F /  16.8 °C 29.95in /  1014.1hPa NE 6.0mph /  9.7km/h 10.0mph /  16.1km/h 75% 0.00in /  0mm
10:14 71.0 °F /  21.7 °C 62.3 °F /  16.8 °C 29.95in /  1014.1hPa NNE 6.0mph /  9.7km/h 8.0mph /  12.9km/h 74% 0.00in /  0mm
10:19 71.5 °F /  21.9 °C 62.8 °F /  17.1 °C 29.95in /  1014.1hPa North 3.0mph /  4.8km/h 8.0mph /  12.9km/h 74% 0.00in /  0mm
10:24 71.7 °F /  22.1 °C 63.4 °F /  17.4 °C 29.95in /  1014.1hPa NNE 2.0mph /  3.2km/h 7.0mph /  11.3km/h 75% 0.00in /  0mm
10:29 71.8 °F /  22.1 °C 62.7 °F /  17.1 °C 29.95in /  1014.1hPa NE 7.0mph /  11.3km/h 9.0mph /  14.5km/h 73% 0.00in /  0mm
10:34 71.8 °F /  22.1 °C 61.9 °F /  16.6 °C 29.95in /  1014.1hPa NNE 2.0mph /  3.2km/h 10.0mph /  16.1km/h 71% 0.00in /  0mm
10:39 72.2 °F /  22.3 °C 63.8 °F /  17.7 °C 29.95in /  1014.1hPa NNE 2.0mph /  3.2km/h 8.0mph /  12.9km/h 75% 0.00in /  0mm
10:44 72.6 °F /  22.6 °C 63.1 °F /  17.3 °C 29.95in /  1014.1hPa NE 7.0mph /  11.3km/h 9.0mph /  14.5km/h 72% 0.00in /  0mm
10:49 72.6 °F /  22.6 °C 62.7 °F /  17.1 °C 29.95in /  1014.1hPa North 3.0mph /  4.8km/h 9.0mph /  14.5km/h 71% 0.00in /  0mm
10:54 72.8 °F /  22.7 °C 62.9 °F /  17.2 °C 29.95in /  1014.1hPa NNW 2.0mph /  3.2km/h 6.0mph /  9.7km/h 71% 0.00in /  0mm
11:00 73.3 °F /  22.9 °C 64.1 °F /  17.8 °C 29.95in /  1014.1hPa NNW 4.0mph /  6.4km/h 5.0mph /  8km/h 73% 0.00in /  0mm
11:05 73.5 °F /  23.1 °C 62.7 °F /  17.1 °C 29.95in /  1014.1hPa North 4.0mph /  6.4km/h 8.0mph /  12.9km/h 69% 0.00in /  0mm
11:10 73.7 °F /  23.2 °C 63.3 °F /  17.4 °C 29.95in /  1014.1hPa NNE 5.0mph /  8km/h 8.0mph /  12.9km/h 70% 0.00in /  0mm
11:15 73.9 °F /  23.3 °C 63.5 °F /  17.5 °C 29.95in /  1014.1hPa North 2.0mph /  3.2km/h 8.0mph /  12.9km/h 70% 0.00in /  0mm
11:20 74.0 °F /  23.3 °C 62.4 °F /  16.9 °C 29.95in /  1014.1hPa North 7.0mph /  11.3km/h 8.0mph /  12.9km/h 67% 0.00in /  0mm
11:25 74.3 °F /  23.5 °C 63.1 °F /  17.3 °C 29.95in /  1014.1hPa ENE 5.0mph /  8km/h 7.0mph /  11.3km/h 68% 0.00in /  0mm
11:30 74.7 °F /  23.7 °C 63.5 °F /  17.5 °C 29.95in /  1014.1hPa ENE 3.0mph /  4.8km/h 6.0mph /  9.7km/h 68% 0.00in /  0mm
11:35 75.4 °F /  24.1 °C 62.8 °F /  17.1 °C 29.95in /  1014.1hPa North 2.0mph /  3.2km/h 5.0mph /  8km/h 65% 0.00in /  0mm
11:40 74.9 °F /  23.8 °C 61.5 °F /  16.4 °C 29.95in /  1014.1hPa NE 5.0mph /  8km/h 7.0mph /  11.3km/h 63% 0.00in /  0mm
11:45 75.0 °F /  23.9 °C 59.2 °F /  15.1 °C 29.95in /  1014.1hPa NE 6.0mph /  9.7km/h 9.0mph /  14.5km/h 58% 0.00in /  0mm
11:50 75.0 °F /  23.9 °C 60.2 °F /  15.7 °C 29.95in /  1014.1hPa NE 4.0mph /  6.4km/h 8.0mph /  12.9km/h 60% 0.00in /  0mm
11:55 75.0 °F /  23.9 °C 59.2 °F /  15.1 °C 29.95in /  1014.1hPa NNE 8.0mph /  12.9km/h 10.0mph /  16.1km/h 58% 0.00in /  0mm
12:00 75.3 °F /  24.1 °C 60.0 °F /  15.6 °C 29.95in /  1014.1hPa NNE 3.0mph /  4.8km/h 8.0mph /  12.9km/h 59% 0.00in /  0mm
12:05 75.5 °F /  24.2 °C 60.7 °F /  15.9 °C 29.95in /  1014.1hPa NNE 3.0mph /  4.8km/h 8.0mph /  12.9km/h 60% 0.00in /  0mm
12:10 75.7 °F /  24.3 °C 60.4 °F /  15.8 °C 29.95in /  1014.1hPa NE 5.0mph /  8km/h 8.0mph /  12.9km/h 59% 0.00in /  0mm
12:15 75.6 °F /  24.2 °C 61.7 °F /  16.5 °C 29.95in /  1014.1hPa NE 6.0mph /  9.7km/h 7.0mph /  11.3km/h 62% 0.00in /  0mm
12:20 75.5 °F /  24.2 °C 61.6 °F /  16.4 °C 29.95in /  1014.1hPa NE 3.0mph /  4.8km/h 7.0mph /  11.3km/h 62% 0.00in /  0mm
12:25 75.8 °F /  24.3 °C 60.0 °F /  15.6 °C 29.95in /  1014.1hPa ENE 2.0mph /  3.2km/h 8.0mph /  12.9km/h 58% 0.00in /  0mm
12:30 76.2 °F /  24.6 °C 61.8 °F /  16.6 °C 29.95in /  1014.1hPa NNW 7.0mph /  11.3km/h 8.0mph /  12.9km/h 61% 0.00in /  0mm
12:35 76.4 °F /  24.7 °C 62.4 °F /  16.9 °C 29.95in /  1014.1hPa NNW 2.0mph /  3.2km/h 7.0mph /  11.3km/h 62% 0.00in /  0mm
12:40 76.9 °F /  24.9 °C 60.0 °F /  15.6 °C 29.95in /  1014.1hPa North 3.0mph /  4.8km/h 7.0mph /  11.3km/h 56% 0.00in /  0mm
12:45 76.9 °F /  24.9 °C 62.0 °F /  16.7 °C 29.95in /  1014.1hPa NE 2.0mph /  3.2km/h 5.0mph /  8km/h 60% 0.00in /  0mm
12:50 77.0 °F /  25 °C 60.6 °F /  15.9 °C 29.95in /  1014.1hPa NW 3.0mph /  4.8km/h 6.0mph /  9.7km/h 57% 0.00in /  0mm
12:55 77.0 °F /  25 °C 60.6 °F /  15.9 °C 29.95in /  1014.1hPa ENE 6.0mph /  9.7km/h 7.0mph /  11.3km/h 57% 0.00in /  0mm
13:00 76.8 °F /  24.9 °C 60.9 °F /  16.1 °C 29.95in /  1014.1hPa NE 7.0mph /  11.3km/h 7.0mph /  11.3km/h 58% 0.00in /  0mm
13:05 77.3 °F /  25.2 °C 61.9 °F /  16.6 °C 29.95in /  1014.1hPa NNW 4.0mph /  6.4km/h 5.0mph /  8km/h 59% 0.00in /  0mm
13:10 77.5 °F /  25.3 °C 58.0 °F /  14.4 °C 29.95in /  1014.1hPa ENE 7.0mph /  11.3km/h 8.0mph /  12.9km/h 51% 0.00in /  0mm
13:16 77.4 °F /  25.2 °C 60.0 °F /  15.6 °C 29.95in /  1014.1hPa NE 4.0mph /  6.4km/h 4.0mph /  6.4km/h 55% 0.00in /  0mm
13:21 77.6 °F /  25.3 °C 59.7 °F /  15.4 °C 29.95in /  1014.1hPa NNE 3.0mph /  4.8km/h 8.0mph /  12.9km/h 54% 0.00in /  0mm
13:26 78.0 °F /  25.6 °C 63.0 °F /  17.2 °C 29.95in /  1014.1hPa NW 4.0mph /  6.4km/h 8.0mph /  12.9km/h 60% 0.00in /  0mm
13:31 78.0 °F /  25.6 °C 61.0 °F /  16.1 °C 29.95in /  1014.1hPa North 7.0mph /  11.3km/h 9.0mph /  14.5km/h 56% 0.00in /  0mm
13:36 78.0 °F /  25.6 °C 60.0 °F /  15.6 °C 29.95in /  1014.1hPa NNW 1.0mph /  1.6km/h 6.0mph /  9.7km/h 54% 0.00in /  0mm
13:41 78.1 °F /  25.6 °C 58.5 °F /  14.7 °C 29.95in /  1014.1hPa NW 1.0mph /  1.6km/h 4.0mph /  6.4km/h 51% 0.00in /  0mm
13:46 78.3 °F /  25.7 °C 60.3 °F /  15.7 °C 29.95in /  1014.1hPa ESE 1.0mph /  1.6km/h 5.0mph /  8km/h 54% 0.00in /  0mm
13:52 78.4 °F /  25.8 °C 60.4 °F /  15.8 °C 29.95in /  1014.1hPa NW 3.0mph /  4.8km/h 5.0mph /  8km/h 54% 0.00in /  0mm
13:56 78.7 °F /  25.9 °C 60.2 °F /  15.7 °C 29.94in /  1013.8hPa WNW 8.0mph /  12.9km/h 8.0mph /  12.9km/h 53% 0.00in /  0mm
14:02 78.1 °F /  25.6 °C 60.6 °F /  15.9 °C 29.94in /  1013.8hPa North 4.0mph /  6.4km/h 6.0mph /  9.7km/h 55% 0.00in /  0mm
14:07 78.3 °F /  25.7 °C 62.3 °F /  16.8 °C 29.94in /  1013.8hPa NNW 2.0mph /  3.2km/h 5.0mph /  8km/h 58% 0.00in /  0mm
14:12 78.8 °F /  26 °C 60.8 °F /  16 °C 29.94in /  1013.8hPa NW 4.0mph /  6.4km/h 6.0mph /  9.7km/h 54% 0.00in /  0mm
14:17 78.5 °F /  25.8 °C 62.5 °F /  16.9 °C 29.94in /  1013.8hPa North 3.0mph /  4.8km/h 7.0mph /  11.3km/h 58% 0.00in /  0mm
14:22 78.5 °F /  25.8 °C 60.5 °F /  15.8 °C 29.94in /  1013.8hPa NNE 5.0mph /  8km/h 8.0mph /  12.9km/h 54% 0.00in /  0mm
14:27 78.8 °F /  26 °C 60.2 °F /  15.7 °C 29.94in /  1013.8hPa WNW 3.0mph /  4.8km/h 6.0mph /  9.7km/h 53% 0.00in /  0mm
14:32 78.5 °F /  25.8 °C 60.5 °F /  15.8 °C 29.94in /  1013.8hPa ENE 7.0mph /  11.3km/h 8.0mph /  12.9km/h 54% 0.00in /  0mm
14:37 78.5 °F /  25.8 °C 62.0 °F /  16.7 °C 29.93in /  1013.4hPa NNW 5.0mph /  8km/h 10.0mph /  16.1km/h 57% 0.00in /  0mm
14:42 78.9 °F /  26.1 °C 61.4 °F /  16.3 °C 29.94in /  1013.8hPa NNW 6.0mph /  9.7km/h 9.0mph /  14.5km/h 55% 0.00in /  0mm
14:47 79.3 °F /  26.3 °C 60.2 °F /  15.7 °C 29.94in /  1013.8hPa ESE 2.0mph /  3.2km/h 5.0mph /  8km/h 52% 0.00in /  0mm
14:52 79.4 °F /  26.3 °C 62.3 °F /  16.8 °C 29.93in /  1013.4hPa NE 3.0mph /  4.8km/h 10.0mph /  16.1km/h 56% 0.00in /  0mm
14:57 79.7 °F /  26.5 °C 61.6 °F /  16.4 °C 29.93in /  1013.4hPa North 6.0mph /  9.7km/h 7.0mph /  11.3km/h 54% 0.00in /  0mm
15:02 79.8 °F /  26.6 °C 64.7 °F /  18.2 °C 29.93in /  1013.4hPa West 3.0mph /  4.8km/h 6.0mph /  9.7km/h 60% 0.00in /  0mm
15:07 79.1 °F /  26.2 °C 60.5 °F /  15.8 °C 29.93in /  1013.4hPa North 3.0mph /  4.8km/h 7.0mph /  11.3km/h 53% 0.00in /  0mm
15:12 78.9 °F /  26.1 °C 60.9 °F /  16.1 °C 29.93in /  1013.4hPa NNW 5.0mph /  8km/h 9.0mph /  14.5km/h 54% 0.00in /  0mm
15:17 79.2 °F /  26.2 °C 60.6 °F /  15.9 °C 29.93in /  1013.4hPa North 7.0mph /  11.3km/h 9.0mph /  14.5km/h 53% 0.00in /  0mm
15:22 78.6 °F /  25.9 °C 59.5 °F /  15.3 °C 29.92in /  1013.1hPa North 3.0mph /  4.8km/h 7.0mph /  11.3km/h 52% 0.00in /  0mm
15:27 78.6 °F /  25.9 °C 60.6 °F /  15.9 °C 29.93in /  1013.4hPa NNE 2.0mph /  3.2km/h 4.0mph /  6.4km/h 54% 0.00in /  0mm
15:32 79.2 °F /  26.2 °C 61.1 °F /  16.2 °C 29.93in /  1013.4hPa NW 3.0mph /  4.8km/h 4.0mph /  6.4km/h 54% 0.00in /  0mm
15:37 79.8 °F /  26.6 °C 62.2 °F /  16.8 °C 29.92in /  1013.1hPa NNW 5.0mph /  8km/h 7.0mph /  11.3km/h 55% 0.00in /  0mm
15:42 80.0 °F /  26.7 °C 62.9 °F /  17.2 °C 29.92in /  1013.1hPa NW 7.0mph /  11.3km/h 8.0mph /  12.9km/h 56% 0.00in /  0mm
15:47 79.7 °F /  26.5 °C 60.5 °F /  15.8 °C 29.92in /  1013.1hPa NE 6.0mph /  9.7km/h 6.0mph /  9.7km/h 52% 0.00in /  0mm
15:52 79.5 °F /  26.4 °C 60.9 °F /  16.1 °C 29.92in /  1013.1hPa NNW 1.0mph /  1.6km/h 6.0mph /  9.7km/h 53% 0.00in /  0mm
15:57 79.8 °F /  26.6 °C 63.2 °F /  17.3 °C 29.92in /  1013.1hPa NNW 6.0mph /  9.7km/h 7.0mph /  11.3km/h 57% 0.00in /  0mm
16:02 80.0 °F /  26.7 °C 61.3 °F /  16.3 °C 29.92in /  1013.1hPa West 2.0mph /  3.2km/h 5.0mph /  8km/h 53% 0.00in /  0mm
16:07 80.4 °F /  26.9 °C 61.2 °F /  16.2 °C 29.92in /  1013.1hPa NW 2.0mph /  3.2km/h 6.0mph /  9.7km/h 52% 0.00in /  0mm
16:12 80.6 °F /  27 °C 60.3 °F /  15.7 °C 29.92in /  1013.1hPa NE 1.0mph /  1.6km/h 5.0mph /  8km/h 50% 0.00in /  0mm
16:17 80.7 °F /  27.1 °C 59.8 °F /  15.4 °C 29.91in /  1012.8hPa NNW 5.0mph /  8km/h 7.0mph /  11.3km/h 49% 0.00in /  0mm
16:23 80.6 °F /  27 °C 60.3 °F /  15.7 °C 29.91in /  1012.8hPa NNW 6.0mph /  9.7km/h 8.0mph /  12.9km/h 50% 0.00in /  0mm
16:28 80.7 °F /  27.1 °C 60.3 °F /  15.7 °C 29.91in /  1012.8hPa NNE 3.0mph /  4.8km/h 6.0mph /  9.7km/h 50% 0.00in /  0mm
16:33 80.5 °F /  26.9 °C 58.4 °F /  14.7 °C 29.91in /  1012.8hPa NW 4.0mph /  6.4km/h 9.0mph /  14.5km/h 47% 0.00in /  0mm
16:38 80.6 °F /  27 °C 60.8 °F /  16 °C 29.91in /  1012.8hPa NNE 4.0mph /  6.4km/h 9.0mph /  14.5km/h 51% 0.00in /  0mm
16:43 80.5 °F /  26.9 °C 58.4 °F /  14.7 °C 29.91in /  1012.8hPa NW 2.0mph /  3.2km/h 9.0mph /  14.5km/h 47% 0.00in /  0mm
16:48 80.6 °F /  27 °C 59.7 °F /  15.4 °C 29.91in /  1012.8hPa NW 4.0mph /  6.4km/h 7.0mph /  11.3km/h 49% 0.00in /  0mm
16:53 80.8 °F /  27.1 °C 59.3 °F /  15.2 °C 29.91in /  1012.8hPa NNE 2.0mph /  3.2km/h 6.0mph /  9.7km/h 48% 0.00in /  0mm
16:58 80.6 °F /  27 °C 58.5 °F /  14.7 °C 29.91in /  1012.8hPa NW 3.0mph /  4.8km/h 9.0mph /  14.5km/h 47% 0.00in /  0mm
17:03 80.8 °F /  27.1 °C 58.7 °F /  14.8 °C 29.90in /  1012.4hPa NW 6.0mph /  9.7km/h 7.0mph /  11.3km/h 47% 0.00in /  0mm
17:08 80.8 °F /  27.1 °C 58.7 °F /  14.8 °C 29.90in /  1012.4hPa North 4.0mph /  6.4km/h 7.0mph /  11.3km/h 47% 0.00in /  0mm
17:13 80.9 °F /  27.2 °C 59.4 °F /  15.2 °C 29.90in /  1012.4hPa NNE 6.0mph /  9.7km/h 6.0mph /  9.7km/h 48% 0.00in /  0mm
17:18 81.0 °F /  27.2 °C 60.1 °F /  15.6 °C 29.90in /  1012.4hPa NNW 4.0mph /  6.4km/h 7.0mph /  11.3km/h 49% 0.00in /  0mm
17:23 80.9 °F /  27.2 °C 58.2 °F /  14.6 °C 29.90in /  1012.4hPa NE 2.0mph /  3.2km/h 6.0mph /  9.7km/h 46% 0.00in /  0mm
17:28 81.1 °F /  27.3 °C 60.7 °F /  15.9 °C 29.90in /  1012.4hPa NNW 5.0mph /  8km/h 8.0mph /  12.9km/h 50% 0.00in /  0mm
17:33 81.0 °F /  27.2 °C 57.7 °F /  14.3 °C 29.90in /  1012.4hPa NNW 3.0mph /  4.8km/h 8.0mph /  12.9km/h 45% 0.00in /  0mm
17:38 81.2 °F /  27.3 °C 61.4 °F /  16.3 °C 29.90in /  1012.4hPa North 4.0mph /  6.4km/h 5.0mph /  8km/h 51% 0.00in /  0mm
17:43 81.1 °F /  27.3 °C 59.6 °F /  15.3 °C 29.90in /  1012.4hPa North 2.0mph /  3.2km/h 5.0mph /  8km/h 48% 0.00in /  0mm
17:48 81.1 °F /  27.3 °C 59.6 °F /  15.3 °C 29.90in /  1012.4hPa East 5.0mph /  8km/h 5.0mph /  8km/h 48% 0.00in /  0mm
17:53 80.8 °F /  27.1 °C 59.9 °F /  15.5 °C 29.90in /  1012.4hPa ENE 3.0mph /  4.8km/h 4.0mph /  6.4km/h 49% 0.00in /  0mm
17:58 81.1 °F /  27.3 °C 60.2 °F /  15.7 °C 29.90in /  1012.4hPa NNE 4.0mph /  6.4km/h 6.0mph /  9.7km/h 49% 0.00in /  0mm
18:03 81.0 °F /  27.2 °C 58.3 °F /  14.6 °C 29.90in /  1012.4hPa NE 4.0mph /  6.4km/h 7.0mph /  11.3km/h 46% 0.00in /  0mm
18:08 81.0 °F /  27.2 °C 57.7 °F /  14.3 °C 29.90in /  1012.4hPa NNE 4.0mph /  6.4km/h 4.0mph /  6.4km/h 45% 0.00in /  0mm
18:13 81.2 °F /  27.3 °C 60.2 °F /  15.7 °C 29.90in /  1012.4hPa NE 2.0mph /  3.2km/h 4.0mph /  6.4km/h 49% 0.00in /  0mm
18:18 81.0 °F /  27.2 °C 58.9 °F /  14.9 °C 29.90in /  1012.4hPa NNE 3.0mph /  4.8km/h 7.0mph /  11.3km/h 47% 0.00in /  0mm
18:23 80.7 °F /  27.1 °C 58.6 °F /  14.8 °C 29.90in /  1012.4hPa ENE 3.0mph /  4.8km/h 6.0mph /  9.7km/h 47% 0.00in /  0mm
18:29 80.7 °F /  27.1 °C 59.2 °F /  15.1 °C 29.90in /  1012.4hPa NNE 7.0mph /  11.3km/h 7.0mph /  11.3km/h 48% 0.00in /  0mm
18:34 80.6 °F /  27 °C 58.5 °F /  14.7 °C 29.90in /  1012.4hPa NNE 3.0mph /  4.8km/h 5.0mph /  8km/h 47% 0.00in /  0mm
18:39 80.7 °F /  27.1 °C 59.8 °F /  15.4 °C 29.90in /  1012.4hPa NE 2.0mph /  3.2km/h 4.0mph /  6.4km/h 49% 0.00in /  0mm
18:44 80.7 °F /  27.1 °C 60.9 °F /  16.1 °C 29.90in /  1012.4hPa NE 3.0mph /  4.8km/h 3.0mph /  4.8km/h 51% 0.00in /  0mm
18:49 80.6 °F /  27 °C 59.7 °F /  15.4 °C 29.90in /  1012.4hPa NNE 5.0mph /  8km/h 6.0mph /  9.7km/h 49% 0.00in /  0mm
18:54 80.3 °F /  26.8 °C 60.0 °F /  15.6 °C 29.90in /  1012.4hPa NNE 2.0mph /  3.2km/h 5.0mph /  8km/h 50% 0.00in /  0mm
18:59 80.2 °F /  26.8 °C 60.5 °F /  15.8 °C 29.90in /  1012.4hPa ENE 3.0mph /  4.8km/h 6.0mph /  9.7km/h 51% 0.00in /  0mm
19:04 80.0 °F /  26.7 °C 60.3 °F /  15.7 °C 29.90in /  1012.4hPa NE 2.0mph /  3.2km/h 5.0mph /  8km/h 51% 0.00in /  0mm
19:09 79.7 °F /  26.5 °C 59.4 °F /  15.2 °C 29.90in /  1012.4hPa NNE 2.0mph /  3.2km/h 5.0mph /  8km/h 50% 0.00in /  0mm
19:14 79.5 °F /  26.4 °C 60.9 °F /  16.1 °C 29.90in /  1012.4hPa NE 6.0mph /  9.7km/h 6.0mph /  9.7km/h 53% 0.00in /  0mm
19:19 79.2 °F /  26.2 °C 61.1 °F /  16.2 °C 29.90in /  1012.4hPa ENE 4.0mph /  6.4km/h 5.0mph /  8km/h 54% 0.00in /  0mm
19:24 79.1 °F /  26.2 °C 60.5 °F /  15.8 °C 29.90in /  1012.4hPa NE 2.0mph /  3.2km/h 5.0mph /  8km/h 53% 0.00in /  0mm
19:29 78.9 °F /  26.1 °C 60.9 °F /  16.1 °C 29.90in /  1012.4hPa NE 2.0mph /  3.2km/h 6.0mph /  9.7km/h 54% 0.00in /  0mm
19:34 78.8 °F /  26 °C 60.8 °F /  16 °C 29.90in /  1012.4hPa NE 3.0mph /  4.8km/h 3.0mph /  4.8km/h 54% 0.00in /  0mm
19:39 78.6 °F /  25.9 °C 61.1 °F /  16.2 °C 29.90in /  1012.4hPa NE 1.0mph /  1.6km/h 4.0mph /  6.4km/h 55% 0.00in /  0mm
19:44 78.4 °F /  25.8 °C 60.4 °F /  15.8 °C 29.90in /  1012.4hPa NE 2.0mph /  3.2km/h 4.0mph /  6.4km/h 54% 0.00in /  0mm
19:49 78.1 °F /  25.6 °C 60.1 °F /  15.6 °C 29.90in /  1012.4hPa NE 2.0mph /  3.2km/h 4.0mph /  6.4km/h 54% 0.00in /  0mm
19:54 77.9 °F /  25.5 °C 60.5 °F /  15.8 °C 29.91in /  1012.8hPa NNE 3.0mph /  4.8km/h 4.0mph /  6.4km/h 55% 0.00in /  0mm
19:59 77.5 °F /  25.3 °C 60.6 °F /  15.9 °C 29.91in /  1012.8hPa NE 2.0mph /  3.2km/h 5.0mph /  8km/h 56% 0.00in /  0mm
20:04 77.2 °F /  25.1 °C 60.3 °F /  15.7 °C 29.91in /  1012.8hPa North 2.0mph /  3.2km/h 5.0mph /  8km/h 56% 0.00in /  0mm
20:09 76.9 °F /  24.9 °C 60.5 °F /  15.8 °C 29.91in /  1012.8hPa NNE 2.0mph /  3.2km/h 4.0mph /  6.4km/h 57% 0.00in /  0mm
20:14 76.6 °F /  24.8 °C 60.7 °F /  15.9 °C 29.91in /  1012.8hPa NNE 2.0mph /  3.2km/h 4.0mph /  6.4km/h 58% 0.00in /  0mm
20:19 76.2 °F /  24.6 °C 60.4 °F /  15.8 °C 29.91in /  1012.8hPa NE 2.0mph /  3.2km/h 4.0mph /  6.4km/h 58% 0.00in /  0mm
20:24 75.8 °F /  24.3 °C 60.0 °F /  15.6 °C 29.91in /  1012.8hPa NE 3.0mph /  4.8km/h 5.0mph /  8km/h 58% 0.00in /  0mm
20:29 75.2 °F /  24 °C 60.4 °F /  15.8 °C 29.91in /  1012.8hPa NNE 2.0mph /  3.2km/h 3.0mph /  4.8km/h 60% 0.00in /  0mm
20:34 74.7 °F /  23.7 °C 59.9 °F /  15.5 °C 29.92in /  1013.1hPa Calm   3.0mph /  4.8km/h 60% 0.00in /  0mm
20:39 74.2 °F /  23.4 °C 59.9 °F /  15.5 °C 29.91in /  1012.8hPa NNE 2.0mph /  3.2km/h 2.0mph /  3.2km/h 61% 0.00in /  0mm
20:44 73.8 °F /  23.2 °C 60.0 °F /  15.6 °C 29.92in /  1013.1hPa NNE 1.0mph /  1.6km/h 1.0mph /  1.6km/h 62% 0.00in /  0mm
20:49 73.5 °F /  23.1 °C 60.2 °F /  15.7 °C 29.92in /  1013.1hPa NE 1.0mph /  1.6km/h 2.0mph /  3.2km/h 63% 0.00in /  0mm
20:54 73.2 °F /  22.9 °C 60.3 °F /  15.7 °C 29.92in /  1013.1hPa NNE 2.0mph /  3.2km/h 2.0mph /  3.2km/h 64% 0.00in /  0mm
20:59 72.9 °F /  22.7 °C 60.5 °F /  15.8 °C 29.92in /  1013.1hPa NE 1.0mph /  1.6km/h 2.0mph /  3.2km/h 65% 0.00in /  0mm
21:04 72.6 °F /  22.6 °C 60.2 °F /  15.7 °C 29.92in /  1013.1hPa NE 1.0mph /  1.6km/h 2.0mph /  3.2km/h 65% 0.00in /  0mm
21:09 72.4 °F /  22.4 °C 60.4 °F /  15.8 °C 29.92in /  1013.1hPa Calm   1.0mph /  1.6km/h 66% 0.00in /  0mm
21:14 71.9 °F /  22.2 °C 60.4 °F /  15.8 °C 29.92in /  1013.1hPa NE 1.0mph /  1.6km/h 1.0mph /  1.6km/h 67% 0.00in /  0mm
21:19 71.8 °F /  22.1 °C 60.7 °F /  15.9 °C 29.92in /  1013.1hPa NE 2.0mph /  3.2km/h 2.0mph /  3.2km/h 68% 0.00in /  0mm
21:24 71.7 °F /  22.1 °C 60.6 °F /  15.9 °C 29.92in /  1013.1hPa ENE 1.0mph /  1.6km/h 2.0mph /  3.2km/h 68% 0.00in /  0mm
21:29 71.5 °F /  21.9 °C 60.4 °F /  15.8 °C 29.92in /  1013.1hPa ENE 1.0mph /  1.6km/h 2.0mph /  3.2km/h 68% 0.00in /  0mm
21:34 71.3 °F /  21.8 °C 60.2 °F /  15.7 °C 29.93in /  1013.4hPa ENE 1.0mph /  1.6km/h 1.0mph /  1.6km/h 68% 0.00in /  0mm
21:39 71.2 °F /  21.8 °C 60.1 °F /  15.6 °C 29.93in /  1013.4hPa Calm   2.0mph /  3.2km/h 68% 0.00in /  0mm
21:44 71.0 °F /  21.7 °C 59.9 °F /  15.5 °C 29.93in /  1013.4hPa NE 1.0mph /  1.6km/h 2.0mph /  3.2km/h 68% 0.00in /  0mm
21:49 70.8 °F /  21.6 °C 60.1 °F /  15.6 °C 29.93in /  1013.4hPa NE 2.0mph /  3.2km/h 2.0mph /  3.2km/h 69% 0.00in /  0mm
21:54 70.7 °F /  21.5 °C 59.6 °F /  15.3 °C 29.93in /  1013.4hPa NNE 2.0mph /  3.2km/h 2.0mph /  3.2km/h 68% 0.00in /  0mm
21:59 70.6 °F /  21.4 °C 59.5 °F /  15.3 °C 29.94in /  1013.8hPa NNE 1.0mph /  1.6km/h 2.0mph /  3.2km/h 68% 0.00in /  0mm
22:04 70.6 °F /  21.4 °C 59.5 °F /  15.3 °C 29.93in /  1013.4hPa ENE 2.0mph /  3.2km/h 4.0mph /  6.4km/h 68% 0.00in /  0mm
22:10 71.0 °F /  21.7 °C 59.1 °F /  15.1 °C 29.93in /  1013.4hPa NE 2.0mph /  3.2km/h 5.0mph /  8km/h 66% 0.00in /  0mm
22:16 70.9 °F /  21.6 °C 59.4 °F /  15.2 °C 29.94in /  1013.8hPa NE 1.0mph /  1.6km/h 3.0mph /  4.8km/h 67% 0.00in /  0mm
22:21 70.6 °F /  21.4 °C 59.1 °F /  15.1 °C 29.94in /  1013.8hPa NE 2.0mph /  3.2km/h 3.0mph /  4.8km/h 67% 0.00in /  0mm
22:26 70.4 °F /  21.3 °C 58.9 °F /  14.9 °C 29.94in /  1013.8hPa NE 2.0mph /  3.2km/h 3.0mph /  4.8km/h 67% 0.00in /  0mm
22:32 70.3 °F /  21.3 °C 58.8 °F /  14.9 °C 29.94in /  1013.8hPa NNE 1.0mph /  1.6km/h 3.0mph /  4.8km/h 67% 0.00in /  0mm
22:37 70.0 °F /  21.1 °C 59.0 °F /  15 °C 29.94in /  1013.8hPa NNE 1.0mph /  1.6km/h 1.0mph /  1.6km/h 68% 0.00in /  0mm
22:42 69.7 °F /  20.9 °C 59.1 °F /  15.1 °C 29.95in /  1014.1hPa Calm   1.0mph /  1.6km/h 69% 0.00in /  0mm
22:47 69.3 °F /  20.7 °C 59.1 °F /  15.1 °C 29.95in /  1014.1hPa NE 1.0mph /  1.6km/h 1.0mph /  1.6km/h 70% 0.00in /  0mm
22:52 69.1 °F /  20.6 °C 59.3 °F /  15.2 °C 29.95in /  1014.1hPa Calm     71% 0.00in /  0mm
22:57 68.7 °F /  20.4 °C 59.3 °F /  15.2 °C 29.94in /  1013.8hPa Calm   1.0mph /  1.6km/h 72% 0.00in /  0mm
23:02 68.2 °F /  20.1 °C 59.2 °F /  15.1 °C 29.95in /  1014.1hPa Calm   1.0mph /  1.6km/h 73% 0.00in /  0mm
23:07 68.2 °F /  20.1 °C 59.2 °F /  15.1 °C 29.94in /  1013.8hPa Calm   2.0mph /  3.2km/h 73% 0.00in /  0mm
23:12 68.4 °F /  20.2 °C 59.0 °F /  15 °C 29.95in /  1014.1hPa Calm   1.0mph /  1.6km/h 72% 0.00in /  0mm
23:17 68.3 °F /  20.2 °C 58.9 °F /  14.9 °C 29.95in /  1014.1hPa Calm     72% 0.00in /  0mm
23:22 68.3 °F /  20.2 °C 58.9 °F /  14.9 °C 29.95in /  1014.1hPa Calm     72% 0.00in /  0mm
23:27 68.0 °F /  20 °C 59.4 °F /  15.2 °C 29.95in /  1014.1hPa ENE 1.0mph /  1.6km/h 2.0mph /  3.2km/h 74% 0.00in /  0mm
23:32 67.7 °F /  19.8 °C 59.1 °F /  15.1 °C 29.95in /  1014.1hPa Calm   1.0mph /  1.6km/h 74% 0.00in /  0mm
23:37 67.5 °F /  19.7 °C 58.9 °F /  14.9 °C 29.95in /  1014.1hPa ENE 1.0mph /  1.6km/h 1.0mph /  1.6km/h 74% 0.00in /  0mm
23:42 67.4 °F /  19.7 °C 59.2 °F /  15.1 °C 29.95in /  1014.1hPa Calm   2.0mph /  3.2km/h 75% 0.00in /  0mm
23:47 67.1 °F /  19.5 °C 58.9 °F /  14.9 °C 29.95in /  1014.1hPa NE 1.0mph /  1.6km/h 2.0mph /  3.2km/h 75% 0.00in /  0mm
23:52 67.0 °F /  19.4 °C 58.5 °F /  14.7 °C 29.95in /  1014.1hPa ENE 1.0mph /  1.6km/h 3.0mph /  4.8km/h 74% 0.00in /  0mm
23:57 67.1 °F /  19.5 °C 58.5 °F /  14.7 °C 29.95in /  1014.1hPa Calm   1.0mph /  1.6km/h 74% 0.00in /  0mm
Compliments of Weather Underground